Nearby METAR Reports

 

KDFW - Dallas/Ft Worth, Texas, USA
Distance from station: SSE 10mi, 16km
Updated: Mon, 15-Oct-2018 4:53pm CDT
Light rain, Mist, Overcast
Light rain, Mist, Overcast
 Wind from N
Wind: N 18 mph , 30 km/h
Temperature: 43°F , 6°C
Wind Chill: 35°F , 2°C
Dew Point: 41°F , 5°C
Humidity: 93%
Barometer: 30.24 inHg , 1024 hPa
Summary: Light rain, Mist
Clouds: Overcast
Visibility: 2 miles , 3 km
Cloud details: Partly cloudy 1000 ft
Mostly cloudy 1400 ft
Overcast 2800 ft
2018/10/15 21:53 KDFW 152153Z 36016KT 2SM -RA BR SCT010 BKN014 OVC028 06/05 A3024 RMK AO2 SFC VIS 5 SLP239 P0010 T00610050
KDTO - Denton, Texas, USA
Distance from station: NNW 13mi, 21km
Updated: Mon, 15-Oct-2018 4:53pm CDT
Overcast
Overcast
 Wind from N
Wind: N 18 mph , 30 km/h
Temperature: 45°F , 7°C
Wind Chill: 37°F , 3°C
Dew Point: 37°F , 3°C
Humidity: 76%
Barometer: 30.28 inHg , 1025.4 hPa
Clouds: Overcast
Visibility: 10 miles , 16 km
Cloud details: Overcast 3600 ft
2018/10/15 21:53 KDTO 152153Z 36016KT 10SM OVC036 07/03 A3028 RMK AO2 SLP254 T00720033
 
KAFW - Ft Worth/Allianc, Texas, USA
Distance from station: WSW 14mi, 22km
Updated: Mon, 15-Oct-2018 4:53pm CDT
Light rain, Overcast
Light rain, Overcast
 Wind from N
Wind: N 18 mph , 30 km/h, Gust: 25 mph , 41 km/h
Temperature: 45°F , 7°C
Wind Chill: 37°F , 3°C
Dew Point: 39°F , 4°C
Humidity: 81%
Barometer: 30.27 inHg , 1025.1 hPa
Summary: Light rain
Clouds: Overcast
Visibility: 10 miles , 16 km
Cloud details: Few Clouds 1800 ft
Mostly cloudy 3300 ft
Overcast 4400 ft
2018/10/15 21:53 KAFW 152153Z 35016G22KT 10SM -RA FEW018 BKN033 OVC044 07/04 A3027 RMK AO2 RAB00 SLP256 P0000 T00720044
KADS - Dallas/Addison, Texas, USA
Distance from station: ESE 17mi, 27km
Updated: Mon, 15-Oct-2018 4:47pm CDT
Light rain, Overcast
Light rain, Overcast
 Wind from NNW
Wind: NNW 10 mph , 17 km/h, Gust: 18 mph , 30 km/h
Temperature: 43°F , 6°C
Wind Chill: 37°F , 3°C
Dew Point: 41°F , 5°C
Humidity: 93%
Barometer: 30.27 inHg , 1025.1 hPa
Summary: Light rain
Clouds: Overcast
Visibility: 4 miles , 6 km
Cloud details: Overcast 700 ft
2018/10/15 21:47 KADS 152147Z 34009G16KT 4SM -RA OVC007 06/05 A3027
 
KDAL - Dallas/Love Fld, Texas, USA
Distance from station: SE 19mi, 30km
Updated: Mon, 15-Oct-2018 4:53pm CDT
Rain, Mist, Overcast
Rain, Mist, Overcast
 Wind from NNW
Wind: NNW 15 mph , 24 km/h
Temperature: 45°F , 7°C
Wind Chill: 38°F , 3°C
Dew Point: 43°F , 6°C
Humidity: 93%
Barometer: 30.27 inHg , 1025.1 hPa
Summary: Rain, Mist
Clouds: Overcast
Visibility: 4 miles , 6 km
Cloud details: Mostly cloudy 1200 ft
Overcast 2700 ft
2018/10/15 21:53 KDAL 152153Z 33013KT 4SM RA BR BKN012 OVC027 07/06 A3027 RMK AO2 SLP251 VIS NE-SE-S 6 P0010 T00670056
KFTW - Fort Worth, Texas, USA
Distance from station: SW 21mi, 34km
Updated: Mon, 15-Oct-2018 4:53pm CDT
Rain, Mist, Overcast
Rain, Mist, Overcast
 Wind from NW
Wind: NW 18 mph , 30 km/h, Gust: 26 mph , 43 km/h
Temperature: 43°F , 6°C
Wind Chill: 35°F , 2°C
Dew Point: 41°F , 5°C
Humidity: 93%
Barometer: 30.28 inHg , 1025.4 hPa
Summary: Rain, Mist
Clouds: Overcast
Visibility: 4 miles , 6 km
Cloud details: Partly cloudy 1500 ft
Overcast 4800 ft
2018/10/15 21:53 KFTW 152153Z 31016G23KT 4SM RA BR SCT015 OVC048 06/05 A3028 RMK AO2 PRESRR SLP256 P0007 T00610050
 
KGPM - Grand Prairie, Texas, USA
Distance from station: S 23mi, 37km
Updated: Mon, 15-Oct-2018 4:50pm CDT
Rain, Overcast
Rain, Overcast
 Wind from NNW
Wind: NNW 12 mph , 19 km/h, Gust: 23 mph , 37 km/h
Temperature: 45°F , 7°C
Wind Chill: 39°F , 4°C
Dew Point: 45°F , 7°C
Humidity: 100%
Barometer: 30.26 inHg , 1024.7 hPa
Summary: Rain
Clouds: Overcast
Visibility: 7 miles , 11 km
Cloud details: Mostly cloudy 900 ft
Overcast 1300 ft
2018/10/15 21:50 KGPM 152150Z 34010G20KT 7SM RA BKN009 OVC013 07/07 A3026
KGKY - Arlington, Texas, USA
Distance from station: S 25mi, 41km
Updated: Mon, 15-Oct-2018 4:56pm CDT
Light rain, Overcast
Light rain, Overcast
 Wind from NNW
Wind: NNW 17 mph , 28 km/h
Temperature: 45°F , 7°C
Wind Chill: 38°F , 3°C
Dew Point: 43°F , 6°C
Humidity: 93%
Barometer: 30.27 inHg , 1025.1 hPa
Summary: Light rain
Clouds: Overcast
Visibility: 10 miles , 16 km
Cloud details: Mostly cloudy 800 ft
Mostly cloudy 1500 ft
Overcast 2900 ft
2018/10/15 21:56 KGKY 152156Z 34015KT 10SM -RA BKN008 BKN015 OVC029 07/06 A3027 RMK AO2 CIG 006V013 PRESRR T00670061 PNO $